SWJ weather

Southwest Bay Airport
Malekula Island, Malampa, Vanuatu

Public forecast

Using degrees Celsius for public forecast. Weather courtesy of forecast.io.

METAR (pilot weather report)

Report is more than 6 hours old.

Closest report is Lamap Airport, 22.0 nm (40.8 km) E. Retrieved 2019/05/29 19:00 UTC (19 days ago):

NVSL 291900Z NLI

TAF (pilot weather forecast)

Forecast is more than 6 hours old.

Closest forecast is Lamap Airport, 22.0 nm (40.8 km) E. Retrieved 2019/06/17 06:32 UTC (11 hours ago):

TAF NVSL 170430Z 1706/1806 11015KT 9999 SCT020 BKN040 PROB30 INTER 1706/1712 9000 -SHRA BKN018